createdAt,value
2022-08-19T00:00:51.226Z,74.85
2022-08-19T00:05:51.271Z,74.98
2022-08-19T00:10:51.537Z,75.14
2022-08-19T00:15:52.244Z,75.39
2022-08-19T00:20:52.275Z,75.54
2022-08-19T00:25:52.638Z,75.61
2022-08-19T00:30:53.742Z,75.84
2022-08-19T00:35:56.172Z,75.84
2022-08-19T00:40:56.340Z,75.80
2022-08-19T00:45:56.316Z,75.82
2022-08-19T00:50:56.299Z,75.82
2022-08-19T00:55:56.338Z,76.15
2022-08-19T01:00:56.305Z,76.19
2022-08-19T01:05:56.306Z,76.49
2022-08-19T01:10:56.353Z,76.56
2022-08-19T01:15:56.381Z,76.89
2022-08-19T01:20:56.367Z,76.94
2022-08-19T01:25:56.374Z,76.92
2022-08-19T01:30:58.314Z,77.15
2022-08-19T01:35:58.877Z,77.28
2022-08-19T01:41:00.487Z,77.53
2022-08-19T01:46:03.148Z,77.84
2022-08-19T01:51:03.468Z,78.17
2022-08-19T01:56:03.338Z,78.35
2022-08-19T02:01:03.423Z,78.43
2022-08-19T02:06:03.562Z,78.64
2022-08-19T02:11:03.346Z,78.73
2022-08-19T02:16:04.283Z,79.03
2022-08-19T02:21:04.476Z,79.04
2022-08-19T02:26:04.359Z,79.07
2022-08-19T02:31:04.374Z,79.25
2022-08-19T02:36:04.407Z,79.49
2022-08-19T02:41:04.465Z,79.51
2022-08-19T02:46:05.237Z,79.50
2022-08-19T02:51:05.854Z,79.60
2022-08-19T02:56:06.457Z,79.67
2022-08-19T03:01:06.487Z,79.73
2022-08-19T03:06:06.692Z,79.81
2022-08-19T03:11:06.427Z,79.90
2022-08-19T03:16:06.549Z,79.96
2022-08-19T03:21:06.416Z,80.05
2022-08-19T03:26:16.082Z,80.28
2022-08-19T03:31:45.111Z,80.23
2022-08-19T03:36:11.519Z,80.31
2022-08-19T03:41:11.455Z,80.37
2022-08-19T03:46:11.489Z,80.27
2022-08-19T03:51:11.495Z,80.19
2022-08-19T03:56:12.050Z,80.04
2022-08-19T04:01:12.542Z,79.99
2022-08-19T04:06:13.142Z,79.87
2022-08-19T04:11:13.504Z,79.69
2022-08-19T04:16:13.520Z,79.70
2022-08-19T04:21:13.529Z,79.93
2022-08-19T04:26:13.451Z,80.12
2022-08-19T04:31:13.427Z,80.22
2022-08-19T04:36:13.775Z,80.08
2022-08-19T04:41:31.597Z,80.08
2022-08-19T04:46:39.923Z,80.15
2022-08-19T04:51:34.547Z,79.99
2022-08-19T04:56:34.714Z,79.83
2022-08-19T05:01:34.430Z,79.87
2022-08-19T05:06:34.504Z,79.82
2022-08-19T05:11:34.524Z,79.72
2022-08-19T05:16:34.540Z,79.59
2022-08-19T05:21:52.747Z,79.21
2022-08-19T05:26:52.452Z,78.96
2022-08-19T05:31:52.657Z,78.51
2022-08-19T05:36:54.388Z,77.90
2022-08-19T05:41:55.097Z,77.58
2022-08-19T05:46:55.551Z,77.33
2022-08-19T05:51:56.235Z,77.11
2022-08-19T05:56:56.551Z,76.81
2022-08-19T06:01:57.504Z,76.35
2022-08-19T06:06:58.088Z,75.80
2022-08-19T06:11:59.924Z,75.16
2022-08-19T06:17:02.648Z,74.83
2022-08-19T06:22:02.701Z,74.21
2022-08-19T06:27:03.806Z,73.85
2022-08-19T06:32:03.661Z,73.18
2022-08-19T06:37:03.609Z,72.72
2022-08-19T06:42:03.878Z,72.32
2022-08-19T06:47:14.422Z,71.86
2022-08-19T06:52:06.632Z,70.93
2022-08-19T06:57:07.231Z,70.06
2022-08-19T07:02:07.786Z,69.28
2022-08-19T07:07:20.981Z,67.54
2022-08-19T07:12:10.599Z,65.92
2022-08-19T07:17:10.564Z,65.84
2022-08-19T07:22:13.185Z,65.52
2022-08-19T07:27:15.069Z,64.75
2022-08-19T07:32:14.727Z,64.63
2022-08-19T07:37:14.848Z,64.34
2022-08-19T07:42:15.322Z,63.50
2022-08-19T07:47:48.735Z,62.11
2022-08-19T07:52:17.998Z,61.19
2022-08-19T07:57:17.711Z,60.87
2022-08-19T08:02:17.700Z,59.94
2022-08-19T08:07:35.927Z,59.69
2022-08-19T08:12:38.238Z,58.60
2022-08-19T08:17:49.443Z,56.70
2022-08-19T08:22:59.809Z,53.19
2022-08-19T08:28:00.686Z,48.70
2022-08-19T08:33:00.735Z,45.49
2022-08-19T08:38:04.293Z,41.92
2022-08-19T08:43:05.561Z,39.21
2022-08-19T08:48:07.766Z,36.79
2022-08-19T08:53:09.701Z,37.13
2022-08-19T08:58:09.739Z,33.16
2022-08-19T09:03:09.647Z,29.76
2022-08-19T09:08:15.192Z,28.64
2022-08-19T09:13:16.649Z,28.40
2022-08-19T09:18:19.487Z,30.25
2022-08-19T09:23:26.820Z,31.20
2022-08-19T09:28:27.236Z,33.98
2022-08-19T09:33:24.708Z,32.80
2022-08-19T09:38:24.919Z,31.74
2022-08-19T09:43:33.664Z,30.96
2022-08-19T09:48:28.832Z,30.68
2022-08-19T09:53:29.478Z,29.75
2022-08-19T09:58:31.767Z,29.15
2022-08-19T10:03:31.783Z,29.07
2022-08-19T10:08:31.710Z,29.59
2022-08-19T10:13:32.440Z,28.25
2022-08-19T10:18:34.686Z,26.83
2022-08-19T10:23:35.576Z,26.30
2022-08-19T10:28:37.679Z,27.28
2022-08-19T10:33:53.526Z,29.02
2022-08-19T10:38:50.335Z,31.68
2022-08-19T10:43:46.150Z,30.12
2022-08-19T10:48:45.817Z,33.85
2022-08-19T10:53:45.819Z,35.53
2022-08-19T10:58:45.827Z,36.20
2022-08-19T11:03:45.979Z,35.80
2022-08-19T11:08:46.145Z,35.24
2022-08-19T11:13:46.398Z,34.91
2022-08-19T11:18:47.299Z,34.75
2022-08-19T11:23:47.891Z,35.32
2022-08-19T11:28:47.852Z,35.24
2022-08-19T11:33:50.073Z,35.65
2022-08-19T11:38:50.917Z,36.43
2022-08-19T11:43:51.032Z,36.94
2022-08-19T11:48:51.192Z,37.69
2022-08-19T11:53:51.342Z,38.19
2022-08-19T11:58:52.671Z,39.20
2022-08-19T12:03:52.949Z,40.14
2022-08-19T12:08:52.836Z,40.28
2022-08-19T12:13:52.814Z,40.12
2022-08-19T12:18:52.830Z,40.15
2022-08-19T12:23:55.845Z,40.32
2022-08-19T12:28:55.849Z,40.77
2022-08-19T12:33:55.887Z,41.04
2022-08-19T12:38:55.853Z,41.70
2022-08-19T12:43:55.970Z,42.16
2022-08-19T12:48:56.126Z,42.57
2022-08-19T12:53:56.006Z,42.77
2022-08-19T12:58:56.374Z,43.24
2022-08-19T13:03:56.861Z,43.89
2022-08-19T13:08:59.666Z,43.89
2022-08-19T13:13:58.949Z,44.40
2022-08-19T13:18:58.990Z,44.59
2022-08-19T13:23:59.140Z,45.14
2022-08-19T13:29:24.512Z,45.13
2022-08-19T13:34:25.012Z,44.78
2022-08-19T13:39:28.003Z,44.83
2022-08-19T13:44:29.822Z,44.35
2022-08-19T13:49:30.652Z,44.05
2022-08-19T13:54:31.244Z,43.95
2022-08-19T13:59:30.971Z,44.21
2022-08-19T14:04:31.059Z,43.97
2022-08-19T14:09:31.024Z,43.75
2022-08-19T14:14:31.025Z,43.68
2022-08-19T14:19:31.033Z,43.51
2022-08-19T14:24:31.051Z,43.95
2022-08-19T14:29:31.013Z,44.31
2022-08-19T14:34:32.111Z,44.10
2022-08-19T14:39:31.995Z,44.06
2022-08-19T14:44:34.177Z,44.19
2022-08-19T14:49:34.774Z,44.47
2022-08-19T14:54:36.062Z,44.91
2022-08-19T14:59:36.111Z,44.90
2022-08-19T15:04:36.070Z,44.65
2022-08-19T15:09:36.066Z,44.91
2022-08-19T15:14:36.095Z,44.63
2022-08-19T15:19:36.610Z,44.47
2022-08-19T15:24:48.022Z,44.79
2022-08-19T15:29:41.101Z,45.35
2022-08-19T15:34:41.101Z,45.42
2022-08-19T15:39:41.121Z,45.42
2022-08-19T15:44:41.005Z,45.28
2022-08-19T15:49:41.006Z,45.39
2022-08-19T15:54:41.125Z,45.72
2022-08-19T16:00:02.656Z,45.82
2022-08-19T16:05:19.360Z,45.91
2022-08-19T16:10:27.459Z,45.88
2022-08-19T16:15:21.052Z,45.69
2022-08-19T16:20:24.111Z,45.49
2022-08-19T16:25:26.028Z,45.57
2022-08-19T16:30:26.147Z,46.05
2022-08-19T16:35:26.078Z,46.35
2022-08-19T16:40:26.107Z,46.54
2022-08-19T16:45:26.147Z,46.87
2022-08-19T16:50:47.831Z,47.32
2022-08-19T16:55:28.471Z,47.72
2022-08-19T17:00:28.262Z,48.17
2022-08-19T17:05:28.133Z,49.21
2022-08-19T17:10:28.195Z,49.76
2022-08-19T17:15:28.100Z,49.97
2022-08-19T17:20:28.137Z,50.30
2022-08-19T17:25:28.207Z,50.46
2022-08-19T17:30:28.212Z,50.90
2022-08-19T17:35:28.248Z,51.29
2022-08-19T17:40:29.205Z,51.29
2022-08-19T17:45:30.169Z,51.35
2022-08-19T17:50:30.418Z,51.59
2022-08-19T17:55:30.483Z,51.69
2022-08-19T18:00:30.158Z,51.90
2022-08-19T18:05:32.602Z,52.24
2022-08-19T18:10:34.864Z,52.63
2022-08-19T18:15:35.177Z,52.94
2022-08-19T18:20:35.220Z,53.26
2022-08-19T18:25:35.370Z,53.34
2022-08-19T18:30:35.394Z,53.58
2022-08-19T18:35:56.917Z,53.87
2022-08-19T18:41:15.101Z,54.41
2022-08-19T18:46:36.848Z,55.96
2022-08-19T18:51:35.141Z,57.62
2022-08-19T18:56:37.054Z,58.15
2022-08-19T19:01:40.141Z,59.45
2022-08-19T19:06:40.384Z,60.26
2022-08-19T19:11:40.070Z,60.95
2022-08-19T19:16:40.160Z,61.29
2022-08-19T19:21:42.256Z,61.57
2022-08-19T19:26:45.040Z,62.05
2022-08-19T19:31:45.183Z,63.27
2022-08-19T19:36:45.251Z,63.94
2022-08-19T19:41:45.097Z,64.21
2022-08-19T19:46:45.182Z,64.61
2022-08-19T19:51:45.225Z,65.54
2022-08-19T19:56:45.733Z,66.16
2022-08-19T20:01:46.981Z,66.80
2022-08-19T20:06:47.090Z,66.97
2022-08-19T20:11:47.190Z,68.91
2022-08-19T20:16:47.253Z,68.92
2022-08-19T20:21:51.101Z,69.23
2022-08-19T20:26:50.356Z,69.45
2022-08-19T20:31:57.340Z,69.83
2022-08-19T20:36:53.198Z,69.89
2022-08-19T20:41:55.122Z,69.79
2022-08-19T20:46:58.423Z,69.74
2022-08-19T20:51:57.854Z,69.49
2022-08-19T20:56:58.323Z,69.17
2022-08-19T21:01:58.186Z,69.03
2022-08-19T21:06:58.218Z,69.00
2022-08-19T21:11:58.162Z,68.93
2022-08-19T21:16:58.221Z,68.67
2022-08-19T21:21:58.288Z,68.57
2022-08-19T21:26:58.336Z,68.49
2022-08-19T21:31:58.168Z,68.41
2022-08-19T21:36:58.190Z,68.64
2022-08-19T21:41:58.273Z,68.86
2022-08-19T21:46:58.475Z,68.93
2022-08-19T21:51:58.237Z,68.75
2022-08-19T21:56:58.286Z,69.04
2022-08-19T22:02:15.721Z,69.01
2022-08-19T22:07:00.309Z,68.96
2022-08-19T22:12:00.275Z,68.91
2022-08-19T22:17:00.627Z,69.08
2022-08-19T22:22:00.292Z,69.10
2022-08-19T22:27:01.232Z,69.13
2022-08-19T22:32:01.496Z,69.24
2022-08-19T22:37:03.267Z,69.39
2022-08-19T22:42:03.354Z,69.44
2022-08-19T22:47:03.235Z,69.43
2022-08-19T22:52:17.090Z,69.46
2022-08-19T22:57:19.033Z,69.79
2022-08-19T23:02:19.358Z,69.76
2022-08-19T23:07:19.262Z,69.76
2022-08-19T23:12:21.361Z,69.89
2022-08-19T23:17:21.269Z,70.07
2022-08-19T23:22:21.320Z,70.07
2022-08-19T23:27:41.619Z,70.13
2022-08-19T23:32:41.415Z,70.43
2022-08-19T23:37:41.383Z,70.38
2022-08-19T23:42:41.360Z,70.91
2022-08-19T23:47:41.450Z,70.93
2022-08-19T23:52:41.380Z,71.26
2022-08-19T23:57:41.326Z,71.27
